Time;durP1;ratioP1;P1;durP2;ratioP2;P2;SDS_P1;SDS_P2;PMS_P1;PMS_P2;Temp;Humidity;BMP_temperature;BMP_pressure;BME280_temperature;BME280_humidity;BME280_pressure;Samples;Min_cycle;Max_cycle;Signal;HPM_P1;HPM_P2
2021/11/16 00:02:16;;;;;;;40.67;21.10;;;7.10;21.40;;;;;;5103897;28;20040;-67
2021/11/16 00:04:50;;;;;;;41.75;21.67;;;7.10;21.40;;;;;;5100523;28;20487;-67
2021/11/16 00:07:19;;;;;;;42.92;21.55;;;7.00;21.30;;;;;;5100886;28;20054;-67
2021/11/16 00:09:48;;;;;;;43.55;21.55;;;7.00;22.20;;;;;;5100995;28;20047;-67
2021/11/16 00:12:16;;;;;;;42.83;21.40;;;7.10;21.90;;;;;;5104942;28;20054;-67
2021/11/16 00:14:44;;;;;;;45.17;22.02;;;7.20;21.50;;;;;;5099085;28;20550;-68
2021/11/16 00:17:13;;;;;;;43.60;21.77;;;7.10;21.10;;;;;;5103337;28;20040;-66
2021/11/16 00:19:42;;;;;;;45.45;22.02;;;7.20;21.40;;;;;;5102261;28;20118;-67
2021/11/16 00:22:17;;;;;;;41.47;21.40;;;7.10;21.70;;;;;;5102413;28;20039;-67
2021/11/16 00:25:00;;;;;;;42.13;22.20;;;7.10;21.80;;;;;;5103547;28;20047;-67
2021/11/16 00:27:35;;;;;;;40.60;20.95;;;7.10;22.00;;;;;;5098468;28;20136;-66
2021/11/16 00:30:08;;;;;;;38.58;20.80;;;7.10;22.20;;;;;;5101531;27;20043;-66
2021/11/16 00:32:37;;;;;;;44.40;22.15;;;7.10;21.90;;;;;;5106840;28;20046;-66
2021/11/16 00:35:09;;;;;;;41.78;20.70;;;7.00;22.00;;;;;;5105666;27;20039;-67
2021/11/16 00:37:42;;;;;;;39.45;20.75;;;7.10;22.40;;;;;;5105531;27;20044;-68
2021/11/16 00:40:19;;;;;;;41.75;20.33;;;7.10;21.10;;;;;;5099079;27;20051;-67
2021/11/16 00:42:51;;;;;;;41.35;22.05;;;7.00;22.20;;;;;;5103370;28;20047;-67
2021/11/16 00:45:19;;;;;;;38.95;19.85;;;7.00;23.00;;;;;;5103220;27;20051;-67
2021/11/16 00:47:47;;;;;;;39.85;20.05;;;7.00;21.30;;;;;;5106532;27;20384;-65
2021/11/16 00:50:16;;;;;;;39.47;20.52;;;7.00;22.20;;;;;;5102808;28;20071;-67
2021/11/16 00:52:47;;;;;;;38.50;19.35;;;7.00;22.20;;;;;;5105982;27;20048;-67
2021/11/16 00:55:19;;;;;;;39.20;20.05;;;7.10;21.90;;;;;;5108064;28;20043;-67
2021/11/16 00:57:50;;;;;;;38.47;19.30;;;7.10;21.70;;;;;;5100706;27;20116;-66
2021/11/16 01:00:19;;;;;;;35.92;20.00;;;7.10;22.10;;;;;;5102089;27;20332;-67
2021/11/16 01:02:50;;;;;;;41.25;20.95;;;7.20;22.10;;;;;;5104087;28;20410;-67
2021/11/16 01:05:22;;;;;;;38.92;19.58;;;7.10;21.90;;;;;;5104401;27;20047;-66
2021/11/16 01:07:52;;;;;;;42.08;21.65;;;7.10;22.40;;;;;;5097257;28;20032;-67
2021/11/16 01:10:23;;;;;;;42.38;21.55;;;7.10;22.50;;;;;;5105855;27;20400;-67
2021/11/16 01:12:54;;;;;;;37.72;20.20;;;7.10;22.00;;;;;;5103473;28;20043;-67
2021/11/16 01:15:23;;;;;;;38.13;20.10;;;7.00;22.00;;;;;;5103681;27;20043;-68
2021/11/16 01:17:55;;;;;;;38.80;19.80;;;7.10;22.50;;;;;;5099537;27;20055;-67
2021/11/16 01:20:29;;;;;;;36.55;19.50;;;7.10;21.70;;;;;;5104453;27;20027;-67
2021/11/16 01:23:00;;;;;;;39.13;19.73;;;7.10;21.10;;;;;;5103216;28;20103;-67
2021/11/16 01:25:47;;;;;;;35.65;19.52;;;7.00;22.20;;;;;;5104855;28;20047;-70
2021/11/16 01:28:22;;;;;;;38.15;19.95;;;6.90;22.60;;;;;;5093683;28;20063;-67
2021/11/16 01:30:53;;;;;;;38.63;20.85;;;7.00;23.50;;;;;;5098646;28;20071;-67
2021/11/16 01:33:27;;;;;;;40.65;19.77;;;7.00;23.60;;;;;;5101540;28;20092;-66
2021/11/16 01:35:56;;;;;;;44.90;21.08;;;6.90;24.20;;;;;;5099238;27;20058;-66
2021/11/16 01:38:26;;;;;;;37.97;20.67;;;6.90;23.90;;;;;;5095297;28;20079;-67
2021/11/16 01:40:57;;;;;;;40.92;20.33;;;7.00;24.30;;;;;;5104796;27;20468;-68
2021/11/16 01:43:28;;;;;;;44.33;21.23;;;6.90;24.20;;;;;;5100914;27;20047;-68
2021/11/16 01:46:01;;;;;;;43.97;21.35;;;6.90;24.20;;;;;;5103579;28;20127;-68
2021/11/16 01:48:30;;;;;;;40.88;21.02;;;6.90;24.30;;;;;;5100945;28;20162;-68
2021/11/16 01:50:59;;;;;;;43.28;22.52;;;6.90;24.30;;;;;;5103784;27;20082;-67
2021/11/16 01:53:31;;;;;;;45.75;22.30;;;6.90;25.10;;;;;;5106800;28;20082;-67
2021/11/16 01:56:01;;;;;;;44.55;22.75;;;6.80;25.00;;;;;;5103775;28;20081;-67
2021/11/16 01:58:29;;;;;;;41.10;22.35;;;6.80;25.60;;;;;;5104286;27;20075;-67
2021/11/16 02:01:03;;;;;;;43.42;23.38;;;6.90;25.90;;;;;;5104690;27;20114;-66
2021/11/16 02:03:34;;;;;;;43.40;22.52;;;6.90;25.60;;;;;;5098330;28;20047;-67
2021/11/16 02:06:22;;;;;;;49.42;23.45;;;6.90;24.90;;;;;;5101631;28;20186;-67
2021/11/16 02:08:54;;;;;;;44.40;22.23;;;6.90;25.20;;;;;;5103378;28;20043;-67
2021/11/16 02:11:25;;;;;;;47.53;23.35;;;6.90;25.60;;;;;;5100184;27;20040;-67
2021/11/16 02:13:57;;;;;;;46.03;22.30;;;6.80;25.60;;;;;;5103662;27;20068;-67
2021/11/16 02:16:25;;;;;;;46.58;23.08;;;6.70;26.00;;;;;;5103748;28;20583;-67
2021/11/16 02:18:53;;;;;;;44.40;22.27;;;6.70;26.70;;;;;;5101115;28;20050;-67
2021/11/16 02:21:25;;;;;;;43.72;23.50;;;6.70;27.40;;;;;;5103999;28;20507;-67
2021/11/16 02:23:53;;;;;;;45.88;21.98;;;6.70;27.00;;;;;;5102374;28;20070;-67
2021/11/16 02:26:22;;;;;;;48.72;22.73;;;6.70;27.80;;;;;;5102829;28;20080;-66
2021/11/16 02:28:51;;;;;;;42.17;22.00;;;6.70;28.40;;;;;;5102886;27;20134;-66
2021/11/16 02:31:21;;;;;;;44.60;23.02;;;6.70;27.90;;;;;;5103412;27;20043;-67
2021/11/16 02:33:50;;;;;;;46.65;22.55;;;6.70;27.80;;;;;;5102609;27;20045;-67
2021/11/16 02:36:22;;;;;;;44.33;23.52;;;6.70;28.30;;;;;;5103551;28;20048;-67
2021/11/16 02:38:51;;;;;;;41.85;22.38;;;6.80;28.50;;;;;;5100810;27;20183;-65
2021/11/16 02:41:20;;;;;;;42.67;22.30;;;6.80;27.80;;;;;;5101131;28;20043;-65
2021/11/16 02:43:49;;;;;;;44.08;22.88;;;6.80;27.70;;;;;;5102953;28;20047;-66
2021/11/16 02:46:17;;;;;;;37.83;21.05;;;6.80;27.10;;;;;;5102462;28;20051;-66
2021/11/16 02:48:48;;;;;;;45.13;21.67;;;6.80;27.60;;;;;;5099732;28;20127;-66
2021/11/16 02:51:22;;;;;;;46.50;21.23;;;6.70;27.80;;;;;;5104778;28;20502;-66
2021/11/16 02:53:51;;;;;;;45.38;22.10;;;6.70;28.50;;;;;;5102399;28;20092;-67
2021/11/16 02:56:22;;;;;;;45.00;22.48;;;6.70;28.60;;;;;;5101804;27;20043;-67
2021/11/16 02:58:50;;;;;;;42.40;21.52;;;6.70;28.30;;;;;;5101962;27;20059;-67
2021/11/16 03:01:20;;;;;;;45.95;22.88;;;6.70;28.80;;;;;;5103836;28;20035;-67
2021/11/16 03:03:48;;;;;;;42.30;21.98;;;6.60;29.60;;;;;;5101722;28;20063;-67
2021/11/16 03:06:16;;;;;;;44.15;21.58;;;6.70;29.20;;;;;;5104764;28;20234;-67
2021/11/16 03:08:45;;;;;;;45.60;21.25;;;6.70;29.10;;;;;;5099826;28;20035;-66
2021/11/16 03:11:19;;;;;;;46.55;22.30;;;6.50;29.10;;;;;;5105993;28;20046;-67
2021/11/16 03:13:49;;;;;;;41.20;20.17;;;6.50;30.90;;;;;;5101312;27;20162;-67
2021/11/16 03:16:19;;;;;;;49.75;23.25;;;6.40;30.00;;;;;;5099596;28;20126;-66
2021/11/16 03:18:49;;;;;;;41.40;21.23;;;6.40;31.60;;;;;;5099558;28;20122;-66
2021/11/16 03:21:18;;;;;;;42.60;21.10;;;6.40;30.70;;;;;;5100845;28;20499;-67
2021/11/16 03:23:49;;;;;;;43.28;21.60;;;6.50;32.50;;;;;;5102861;28;20057;-67
2021/11/16 03:26:22;;;;;;;44.28;21.08;;;6.60;31.80;;;;;;5104315;28;20106;-67
2021/11/16 03:28:51;;;;;;;44.72;21.58;;;6.60;31.80;;;;;;5100388;28;20055;-68
2021/11/16 03:31:29;;;;;;;42.65;21.50;;;6.50;30.70;;;;;;5104631;28;20043;-66
2021/11/16 03:33:59;;;;;;;41.05;20.77;;;6.60;31.30;;;;;;5101662;28;20491;-67
2021/11/16 03:36:29;;;;;;;46.35;20.75;;;6.40;30.00;;;;;;5098822;28;20645;-66
2021/11/16 03:38:59;;;;;;;44.47;19.83;;;6.30;30.20;;;;;;5099735;28;20142;-66
2021/11/16 03:41:32;;;;;;;48.42;22.17;;;6.30;31.00;;;;;;5102950;28;20044;-66
2021/11/16 03:44:00;;;;;;;45.60;22.08;;;6.40;32.50;;;;;;5099321;28;20051;-66
2021/11/16 03:46:29;;;;;;;46.72;21.38;;;6.40;32.40;;;;;;5101486;28;20071;-66
2021/11/16 03:48:59;;;;;;;47.78;21.88;;;6.40;31.30;;;;;;5096493;28;20078;-66
2021/11/16 03:51:32;;;;;;;44.55;21.33;;;6.50;32.20;;;;;;5102411;28;20051;-66
2021/11/16 03:54:00;;;;;;;46.28;21.65;;;6.50;32.00;;;;;;5103983;28;20063;-66
2021/11/16 03:56:33;;;;;;;45.30;21.30;;;6.50;31.70;;;;;;5101526;28;20062;-66
2021/11/16 03:59:04;;;;;;;42.90;21.02;;;6.50;31.50;;;;;;5099756;28;20032;-67
2021/11/16 04:01:34;;;;;;;49.35;22.15;;;6.30;32.10;;;;;;5101359;28;20043;-67
2021/11/16 04:04:03;;;;;;;43.78;21.02;;;6.30;33.40;;;;;;5098617;28;20185;-67
2021/11/16 04:06:31;;;;;;;39.58;20.40;;;6.40;33.50;;;;;;5105121;28;20040;-67
2021/11/16 04:09:00;;;;;;;45.95;21.45;;;6.50;33.30;;;;;;5105962;27;20047;-67
2021/11/16 04:11:33;;;;;;;38.88;20.38;;;6.40;32.60;;;;;;5101572;27;20052;-67
2021/11/16 04:14:02;;;;;;;37.40;20.08;;;6.50;33.10;;;;;;5107494;27;20520;-67
2021/11/16 04:16:30;;;;;;;44.95;20.65;;;6.40;32.50;;;;;;5101105;28;20047;-67
2021/11/16 04:19:02;;;;;;;46.47;20.77;;;6.30;32.20;;;;;;5099062;28;20066;-67
2021/11/16 04:21:33;;;;;;;45.83;20.65;;;6.30;31.90;;;;;;5108774;27;20512;-67
2021/11/16 04:24:01;;;;;;;42.60;19.80;;;6.40;33.40;;;;;;5104051;27;20579;-67
2021/11/16 04:26:29;;;;;;;44.17;21.20;;;6.30;32.20;;;;;;5105009;28;20059;-67
2021/11/16 04:29:05;;;;;;;45.72;22.10;;;6.50;33.80;;;;;;5098863;28;20055;-67
2021/11/16 04:31:35;;;;;;;40.38;19.88;;;6.40;32.80;;;;;;5104392;27;20039;-68
2021/11/16 04:34:04;;;;;;;44.85;22.02;;;6.50;33.10;;;;;;5106373;28;20044;-65
2021/11/16 04:36:33;;;;;;;46.15;22.50;;;6.40;32.50;;;;;;5107582;27;20077;-66
2021/11/16 04:39:06;;;;;;;50.03;23.02;;;6.50;33.50;;;;;;5103805;27;20086;-66
2021/11/16 04:41:35;;;;;;;42.25;21.17;;;6.40;35.10;;;;;;5108552;28;20043;-66
2021/11/16 04:44:07;;;;;;;47.55;21.10;;;6.50;34.80;;;;;;5104992;27;20139;-66
2021/11/16 04:46:35;;;;;;;48.17;21.73;;;6.40;33.60;;;;;;5104908;28;20453;-66
2021/11/16 04:49:07;;;;;;;42.50;21.80;;;6.40;35.00;;;;;;5103079;28;20036;-67
2021/11/16 05:02:49;;;;;;;45.63;21.52;;;6.30;35.20;;;;;;5102234;28;20071;-66
2021/11/16 05:05:20;;;;;;;48.55;21.65;;;6.30;34.90;;;;;;5106830;28;20112;-66
2021/11/16 05:07:56;;;;;;;43.90;21.50;;;6.40;35.60;;;;;;5103384;27;20499;-66
2021/11/16 05:10:29;;;;;;;49.08;21.45;;;6.30;34.90;;;;;;5103284;27;20053;-66
2021/11/16 05:12:59;;;;;;;42.08;20.30;;;6.30;35.90;;;;;;5106553;28;20050;-66
2021/11/16 05:15:29;;;;;;;48.30;20.90;;;6.30;36.20;;;;;;5104448;27;20189;-70
2021/11/16 05:17:58;;;;;;;47.08;21.48;;;6.40;36.30;;;;;;5099573;28;20520;-66
2021/11/16 05:20:27;;;;;;;47.55;21.98;;;6.40;35.80;;;;;;5104251;28;20055;-66
2021/11/16 05:22:57;;;;;;;44.65;21.38;;;6.50;35.30;;;;;;5101533;27;20510;-66
2021/11/16 05:25:26;;;;;;;45.47;21.25;;;6.40;35.00;;;;;;5097731;28;20048;-67
2021/11/16 05:27:54;;;;;;;47.55;20.58;;;6.40;35.80;;;;;;5106245;27;20514;-67
2021/11/16 05:30:27;;;;;;;46.80;21.20;;;6.40;35.80;;;;;;5101168;27;20071;-67
2021/11/16 05:32:57;;;;;;;43.80;21.58;;;6.40;36.30;;;;;;5106527;28;20040;-66
2021/11/16 05:35:29;;;;;;;46.85;22.98;;;6.40;36.20;;;;;;5102731;27;20040;-66
2021/11/16 05:38:03;;;;;;;51.20;20.92;;;6.40;36.60;;;;;;5100417;28;20084;-66
2021/11/16 05:40:31;;;;;;;47.35;21.63;;;6.40;37.50;;;;;;5106234;27;20081;-67
2021/11/16 05:43:03;;;;;;;47.50;21.75;;;6.40;37.50;;;;;;5101991;28;20097;-67
2021/11/16 05:45:31;;;;;;;47.13;21.65;;;6.40;38.20;;;;;;5102872;27;20040;-67
2021/11/16 05:48:01;;;;;;;45.67;19.95;;;6.40;38.60;;;;;;5104610;28;20168;-66
2021/11/16 05:50:31;;;;;;;46.40;21.10;;;6.40;39.20;;;;;;5103991;27;20051;-67
2021/11/16 05:52:59;;;;;;;43.83;21.02;;;6.40;38.70;;;;;;5100491;28;20587;-66
2021/11/16 05:55:27;;;;;;;46.60;21.75;;;6.30;39.20;;;;;;5105443;28;20143;-66
2021/11/16 05:57:57;;;;;;;44.05;20.88;;;6.30;39.10;;;;;;5100356;27;20047;-66
2021/11/16 06:00:26;;;;;;;46.45;21.55;;;6.30;40.50;;;;;;5104950;27;20081;-66
2021/11/16 06:02:58;;;;;;;49.53;22.02;;;6.30;40.20;;;;;;5102554;28;20414;-67
2021/11/16 06:05:27;;;;;;;40.60;20.73;;;6.30;40.70;;;;;;5100862;27;20040;-66
2021/11/16 06:08:01;;;;;;;47.92;20.60;;;6.30;40.40;;;;;;5101763;28;20123;-67
2021/11/16 06:10:30;;;;;;;46.15;20.58;;;6.20;40.00;;;;;;5102461;28;20503;-66
2021/11/16 06:13:02;;;;;;;46.50;19.98;;;6.20;40.80;;;;;;5101440;28;20082;-67
2021/11/16 06:15:32;;;;;;;46.53;21.55;;;6.20;39.60;;;;;;5102520;27;20078;-67
2021/11/16 06:18:02;;;;;;;41.28;19.23;;;6.20;41.00;;;;;;5095585;28;20067;-66
2021/11/16 06:20:33;;;;;;;45.60;19.70;;;6.30;41.10;;;;;;5103169;28;20487;-66
2021/11/16 06:23:01;;;;;;;44.10;19.80;;;6.30;40.70;;;;;;5103667;28;20509;-66
2021/11/16 06:25:29;;;;;;;43.17;19.23;;;6.20;40.30;;;;;;5103162;28;20130;-66
2021/11/16 06:27:58;;;;;;;40.00;19.23;;;6.20;39.50;;;;;;5103185;28;20036;-66
2021/11/16 06:30:30;;;;;;;44.85;20.92;;;6.30;39.50;;;;;;5101740;28;20054;-67
2021/11/16 06:33:04;;;;;;;42.85;20.75;;;6.20;39.00;;;;;;5102280;27;20096;-67
2021/11/16 06:35:33;;;;;;;42.17;20.42;;;6.30;40.20;;;;;;5104399;27;20131;-67
2021/11/16 06:38:03;;;;;;;43.13;19.52;;;6.30;40.40;;;;;;5100813;27;20035;-67
2021/11/16 06:40:37;;;;;;;47.08;21.15;;;6.30;40.00;;;;;;5099117;27;20050;-66
2021/11/16 06:43:07;;;;;;;42.65;20.08;;;6.30;40.20;;;;;;5101196;27;20517;-66
2021/11/16 06:45:35;;;;;;;45.63;20.70;;;6.30;39.70;;;;;;5100351;27;20032;-66
2021/11/16 06:48:05;;;;;;;42.28;20.23;;;6.30;40.80;;;;;;5097380;28;20036;-67
2021/11/16 06:50:36;;;;;;;42.75;20.88;;;6.30;40.00;;;;;;5100361;28;20056;-65
2021/11/16 06:53:08;;;;;;;48.03;22.10;;;6.40;39.20;;;;;;5096180;27;20509;-66
2021/11/16 06:55:36;;;;;;;41.97;18.75;;;6.40;38.60;;;;;;5099329;28;20070;-67
2021/11/16 06:58:08;;;;;;;45.05;19.85;;;6.40;37.40;;;;;;5097907;28;20070;-65
2021/11/16 07:00:39;;;;;;;41.50;20.70;;;6.40;36.70;;;;;;5100219;27;20221;-66
2021/11/16 07:03:25;;;;;;;39.53;19.08;;;6.30;37.70;;;;;;5101064;28;20338;-66
2021/11/16 07:05:57;;;;;;;40.85;19.30;;;6.20;37.90;;;;;;5103925;28;20059;-66
2021/11/16 07:08:32;;;;;;;43.17;19.85;;;6.30;37.90;;;;;;5097660;28;20040;-67
2021/11/16 07:11:08;;;;;;;43.22;19.38;;;6.30;37.00;;;;;;5102353;28;20077;-67
2021/11/16 07:13:55;;;;;;;40.05;19.98;;;6.30;37.00;;;;;;5104683;27;20137;-66
2021/11/16 07:16:24;;;;;;;;;;;6.30;35.70;;;;;;5103695;27;20184;-66
2021/11/16 07:18:57;;;;;;;39.80;18.25;;;6.30;35.70;;;;;;5099624;28;20511;-65
2021/11/16 07:21:28;;;;;;;37.45;18.20;;;6.40;35.60;;;;;;5103624;28;20051;-67
2021/11/16 07:24:09;;;;;;;41.88;19.35;;;6.30;35.70;;;;;;5103787;27;20036;-66
2021/11/16 07:26:42;;;;;;;37.95;18.60;;;6.40;35.80;;;;;;5099606;28;20039;-66
2021/11/16 07:29:13;;;;;;;36.85;18.63;;;6.40;35.00;;;;;;5092032;28;20043;-65
2021/11/16 07:31:44;;;;;;;36.03;17.92;;;6.30;34.90;;;;;;5102355;28;20120;-66
2021/11/16 07:34:18;;;;;;;35.63;17.80;;;6.30;34.20;;;;;;5099731;28;20040;-66
2021/11/16 07:36:56;;;;;;;35.08;18.30;;;6.30;32.00;;;;;;5103901;28;20410;-66
2021/11/16 07:39:26;;;;;;;35.97;17.95;;;6.40;32.50;;;;;;5099355;28;20040;-66
2021/11/16 07:42:05;;;;;;;37.40;17.10;;;6.40;31.40;;;;;;5105472;27;20100;-66
2021/11/16 07:44:34;;;;;;;34.17;16.95;;;6.50;30.80;;;;;;5108511;28;20071;-66
2021/11/16 07:47:06;;;;;;;33.50;16.38;;;6.50;30.30;;;;;;5105399;28;20058;-66
2021/11/16 07:49:34;;;;;;;35.60;16.65;;;6.50;28.00;;;;;;5104235;27;20108;-66
2021/11/16 07:52:06;;;;;;;33.20;15.85;;;6.50;28.50;;;;;;5107396;28;20139;-67
2021/11/16 07:54:35;;;;;;;33.53;16.27;;;6.40;27.30;;;;;;5099214;27;20115;-67
2021/11/16 07:57:08;;;;;;;31.83;15.95;;;6.40;27.70;;;;;;5107598;28;20051;-65
2021/11/16 07:59:36;;;;;;;31.40;16.17;;;6.30;27.60;;;;;;5103492;28;20109;-66
2021/11/16 08:02:07;;;;;;;33.80;16.83;;;6.40;27.30;;;;;;5102259;28;20128;-66
2021/11/16 08:04:42;;;;;;;27.08;14.40;;;6.30;27.20;;;;;;5106504;28;20097;-66
2021/11/16 08:07:28;;;;;;;29.27;15.82;;;6.30;28.70;;;;;;5105546;28;20292;-66
2021/11/16 08:10:04;;;;;;;30.80;14.98;;;6.30;27.40;;;;;;5099546;28;20050;-66
2021/11/16 08:12:36;;;;;;;55.63;28.02;;;6.30;27.20;;;;;;5108100;27;20044;-66
2021/11/16 08:15:09;;;;;;;28.08;14.60;;;6.50;27.30;;;;;;5106808;28;20039;-66
2021/11/16 08:17:44;;;;;;;25.52;14.55;;;6.40;25.90;;;;;;5086695;28;20051;-66
2021/11/16 08:20:14;;;;;;;27.85;14.07;;;6.40;25.40;;;;;;5106495;28;20050;-66
2021/11/16 08:22:45;;;;;;;30.83;15.13;;;6.50;25.50;;;;;;5103833;28;20043;-66
2021/11/16 08:25:15;;;;;;;32.38;15.15;;;6.50;24.80;;;;;;5106097;27;20039;-66
2021/11/16 08:27:46;;;;;;;27.00;14.48;;;6.30;25.10;;;;;;5106429;28;20039;-65
2021/11/16 08:30:17;;;;;;;28.70;14.43;;;6.30;25.50;;;;;;5104687;27;20051;-66
2021/11/16 08:32:46;;;;;;;29.73;15.27;;;6.40;24.70;;;;;;5103791;28;20119;-68
2021/11/16 08:35:16;;;;;;;29.75;14.15;;;6.40;23.90;;;;;;5106000;28;20052;-67
2021/11/16 08:37:50;;;;;;;30.15;15.00;;;6.40;24.70;;;;;;5101587;27;20166;-67
2021/11/16 08:40:26;;;;;;;29.33;14.75;;;6.40;25.20;;;;;;5104284;27;20085;-68
2021/11/16 08:43:00;;;;;;;28.38;15.05;;;6.40;25.00;;;;;;5102741;28;20055;-66
2021/11/16 08:45:35;;;;;;;32.27;14.87;;;6.30;23.90;;;;;;5103454;28;20032;-66
2021/11/16 08:48:09;;;;;;;31.60;15.35;;;6.40;24.00;;;;;;5103687;28;20354;-66
2021/11/16 08:50:40;;;;;;;32.28;15.60;;;6.60;24.10;;;;;;5095309;28;20036;-67
2021/11/16 08:53:11;;;;;;;29.80;15.05;;;6.60;23.00;;;;;;5102476;28;20051;-66
2021/11/16 08:55:41;;;;;;;31.35;14.68;;;6.50;23.20;;;;;;5107463;27;20047;-67
2021/11/16 08:58:16;;;;;;;30.58;14.80;;;6.60;22.80;;;;;;5104063;28;20240;-67
2021/11/16 09:00:47;;;;;;;33.22;15.68;;;6.40;21.00;;;;;;5104528;27;20043;-67
2021/11/16 09:03:23;;;;;;;27.48;14.10;;;6.50;23.00;;;;;;5104690;28;20499;-67
2021/11/16 09:05:52;;;;;;;36.70;15.75;;;6.60;23.70;;;;;;5088533;28;20052;-66
2021/11/16 09:08:24;;;;;;;27.83;14.85;;;6.50;23.70;;;;;;5100059;27;20170;-66
2021/11/16 09:10:55;;;;;;;30.83;15.52;;;6.40;22.60;;;;;;5105563;27;20060;-66
2021/11/16 09:13:25;;;;;;;31.20;16.10;;;6.50;23.80;;;;;;5105004;28;20472;-67
2021/11/16 09:15:58;;;;;;;33.17;15.18;;;6.60;24.00;;;;;;5102926;27;20062;-67
2021/11/16 09:18:29;;;;;;;32.28;15.68;;;6.60;22.70;;;;;;5104840;28;20509;-67
2021/11/16 09:21:02;;;;;;;32.50;15.77;;;6.60;23.00;;;;;;5104804;28;20156;-67
2021/11/16 09:23:35;;;;;;;29.45;15.32;;;6.60;23.30;;;;;;5102502;27;20385;-67
2021/11/16 09:26:08;;;;;;;48.72;25.77;;;6.60;23.50;;;;;;5107478;28;20039;-66
2021/11/16 09:28:37;;;;;;;32.22;15.65;;;6.80;23.40;;;;;;5104967;27;20048;-66
2021/11/16 09:31:19;;;;;;;28.08;14.40;;;6.70;21.50;;;;;;5101263;28;20043;-66
2021/11/16 09:33:48;;;;;;;28.10;14.35;;;6.70;21.50;;;;;;5103334;28;20036;-66
2021/11/16 09:36:22;;;;;;;29.33;14.13;;;6.80;22.60;;;;;;5104665;28;20103;-67
2021/11/16 09:38:57;;;;;;;28.23;14.10;;;6.80;21.60;;;;;;5083313;28;20048;-66
2021/11/16 09:41:37;;;;;;;32.50;14.77;;;6.80;21.50;;;;;;5085177;28;20067;-67
2021/11/16 09:44:09;;;;;;;29.95;13.40;;;7.00;21.80;;;;;;5086949;28;20093;-67
2021/11/16 09:46:51;;;;;;;34.28;14.32;;;6.90;21.20;;;;;;5079875;28;20097;-67
2021/11/16 09:49:30;;;;;;;25.52;12.65;;;7.00;20.90;;;;;;5075440;28;20067;-66
2021/11/16 09:52:02;;;;;;;29.52;13.98;;;7.00;19.50;;;;;;5088809;28;20278;-66
2021/11/16 09:54:50;;;;;;;28.90;12.75;;;6.90;20.40;;;;;;5077776;28;20036;-68
2021/11/16 09:57:24;;;;;;;27.70;12.38;;;6.90;20.20;;;;;;5095477;28;20055;-67
2021/11/16 10:00:00;;;;;;;21.98;10.95;;;7.00;20.10;;;;;;5081780;28;20098;-67
2021/11/16 10:02:30;;;;;;;25.08;12.05;;;7.00;19.00;;;;;;5103529;28;20063;-67
2021/11/16 10:05:06;;;;;;;;;;;6.80;19.60;;;;;;5102088;27;20044;-67
2021/11/16 10:07:35;;;;;;;26.13;11.10;;;6.80;17.50;;;;;;5077711;28;20705;-67
2021/11/16 10:10:06;;;;;;;26.23;12.40;;;6.90;17.90;;;;;;5104085;27;20104;-67
2021/11/16 10:12:39;;;;;;;26.27;13.13;;;6.90;19.10;;;;;;5105654;27;20460;-66
2021/11/16 10:15:13;;;;;;;27.35;12.88;;;7.00;18.10;;;;;;5098059;28;20659;-67
2021/11/16 10:17:43;;;;;;;27.23;11.95;;;6.90;18.10;;;;;;5103717;28;20518;-67
2021/11/16 10:20:12;;;;;;;24.48;11.52;;;6.90;18.60;;;;;;5105080;27;20202;-67
2021/11/16 10:22:42;;;;;;;25.00;12.23;;;6.80;17.80;;;;;;5101587;28;20595;-67
2021/11/16 10:25:15;;;;;;;23.70;11.57;;;6.70;18.80;;;;;;5104969;27;20058;-67
2021/11/16 10:27:45;;;;;;;25.30;10.90;;;6.80;18.30;;;;;;5101847;28;20138;-67
2021/11/16 10:30:18;;;;;;;21.17;11.40;;;6.80;17.60;;;;;;5098104;28;20031;-66
2021/11/16 10:32:49;;;;;;;21.35;10.98;;;6.90;18.50;;;;;;5085085;28;20058;-67
2021/11/16 10:35:22;;;;;;;22.67;11.30;;;6.90;18.90;;;;;;5082888;28;20404;-67
2021/11/16 10:37:58;;;;;;;24.85;11.55;;;6.90;17.30;;;;;;5076893;28;20054;-67
2021/11/16 10:40:31;;;;;;;21.52;11.73;;;6.90;18.00;;;;;;5085067;28;20077;-66
2021/11/16 10:43:01;;;;;;;23.13;10.73;;;7.10;17.40;;;;;;5082746;28;20180;-66
2021/11/16 10:45:35;;;;;;;21.88;10.63;;;7.30;17.20;;;;;;5081883;28;20376;-66
2021/11/16 10:48:08;;;;;;;25.25;10.98;;;7.20;15.30;;;;;;5069692;28;20048;-66
2021/11/16 10:50:42;;;;;;;22.80;10.02;;;6.90;15.60;;;;;;5078979;28;20457;-67
2021/11/16 10:53:18;;;;;;;20.13;10.90;;;6.80;16.60;;;;;;5079233;28;20052;-66
2021/11/16 10:55:49;;;;;;;21.90;11.57;;;7.00;17.40;;;;;;5085158;28;20056;-67
2021/11/16 10:58:23;;;;;;;35.92;16.92;;;7.20;16.40;;;;;;5076181;28;20127;-67
2021/11/16 11:00:58;;;;;;;21.55;10.02;;;7.30;15.80;;;;;;5079934;28;20036;-66
2021/11/16 11:03:31;;;;;;;26.50;10.13;;;7.30;15.20;;;;;;5085100;28;20089;-67
2021/11/16 11:06:01;;;;;;;17.27;8.90;;;7.20;16.10;;;;;;5080006;28;20040;-66
2021/11/16 11:08:41;;;;;;;21.17;9.18;;;7.20;14.00;;;;;;5081269;28;20039;-67
2021/11/16 11:11:20;;;;;;;17.15;8.05;;;7.20;14.40;;;;;;5082476;28;20101;-67
2021/11/16 11:14:03;;;;;;;18.60;8.32;;;7.10;15.20;;;;;;5079006;28;20051;-66
2021/11/16 11:16:34;;;;;;;21.83;10.13;;;7.00;13.20;;;;;;5083094;28;20882;-67
2021/11/16 11:19:03;;;;;;;18.83;8.77;;;7.20;14.00;;;;;;5082669;28;20048;-68
2021/11/16 11:21:35;;;;;;;17.63;8.55;;;7.20;14.50;;;;;;5081410;28;20127;-67
2021/11/16 11:24:19;;;;;;;15.52;8.40;;;7.10;14.00;;;;;;5082435;28;20120;-66
2021/11/16 11:26:55;;;;;;;17.02;8.60;;;7.20;13.70;;;;;;5107715;27;20476;-67
2021/11/16 11:29:32;;;;;;;17.95;8.38;;;7.20;13.00;;;;;;5091769;27;20049;-69
2021/11/16 11:32:13;;;;;;;17.73;9.03;;;7.20;13.10;;;;;;5082705;28;20146;-66
2021/11/16 11:34:47;;;;;;;17.33;8.25;;;7.30;12.20;;;;;;5086428;28;20105;-67
2021/11/16 11:37:21;;;;;;;13.77;7.80;;;7.30;11.30;;;;;;5078998;28;20068;-67
2021/11/16 11:39:59;;;;;;;15.95;7.97;;;7.40;11.30;;;;;;5078340;28;20051;-66
2021/11/16 11:42:31;;;;;;;16.83;8.27;;;7.30;11.40;;;;;;5075951;28;20062;-67
2021/11/16 11:45:11;;;;;;;16.05;8.55;;;7.40;10.50;;;;;;5079713;28;20113;-67
2021/11/16 11:47:42;;;;;;;16.40;9.13;;;7.50;10.60;;;;;;5078449;28;20093;-67
2021/11/16 11:50:24;;;;;;;18.17;9.15;;;7.40;9.60;;;;;;5082190;28;20044;-67
2021/11/16 11:52:58;;;;;;;13.95;7.70;;;7.40;9.00;;;;;;5079969;28;20043;-67
2021/11/16 11:55:29;;;;;;;16.15;8.70;;;7.10;8.70;;;;;;5090144;28;20502;-67
2021/11/16 11:58:01;;;;;;;15.63;7.97;;;7.20;9.70;;;;;;5101792;28;20051;-67
2021/11/16 12:00:33;;;;;;;15.45;8.48;;;7.20;9.50;;;;;;5093787;28;20125;-68
2021/11/16 12:03:02;;;;;;;15.43;8.38;;;7.30;9.40;;;;;;5083683;28;20138;-65
2021/11/16 12:05:40;;;;;;;29.05;15.32;;;7.30;9.60;;;;;;5083774;28;20515;-66
2021/11/16 12:08:13;;;;;;;18.97;11.30;;;7.50;10.10;;;;;;5077861;28;20052;-69
2021/11/16 12:10:47;;;;;;;13.02;7.35;;;7.50;8.80;;;;;;5080142;28;20282;-67
2021/11/16 12:13:20;;;;;;;12.27;7.20;;;7.40;8.40;;;;;;5082966;28;20163;-66
2021/11/16 12:15:52;;;;;;;13.73;6.82;;;7.30;7.50;;;;;;5083700;28;20082;-68
2021/11/16 12:18:36;;;;;;;15.60;7.45;;;7.10;8.40;;;;;;5079254;28;20290;-68
2021/11/16 12:21:27;;;;;;;10.95;6.85;;;7.10;8.30;;;;;;5068850;28;20048;-67
2021/11/16 12:24:00;;;;;;;11.25;6.93;;;7.20;8.40;;;;;;5082780;28;20462;-67
2021/11/16 12:26:33;;;;;;;12.93;7.30;;;7.20;8.80;;;;;;5077778;28;20560;-66
2021/11/16 12:29:14;;;;;;;13.05;6.97;;;7.30;7.70;;;;;;5090491;28;20043;-67
2021/11/16 12:31:49;;;;;;;12.40;6.78;;;7.20;7.30;;;;;;5081105;28;20044;-67
2021/11/16 12:34:32;;;;;;;13.35;6.97;;;7.20;7.50;;;;;;5086926;28;20497;-66
2021/11/16 12:37:01;;;;;;;14.27;7.38;;;7.40;7.40;;;;;;5087388;28;20079;-67
2021/11/16 12:39:29;;;;;;;12.07;6.60;;;7.40;6.80;;;;;;5084322;28;20180;-67
2021/11/16 12:42:11;;;;;;;13.45;6.43;;;7.10;6.70;;;;;;5081623;28;20047;-67
2021/11/16 12:44:50;;;;;;;13.73;8.48;;;7.00;7.20;;;;;;5087221;28;20039;-67
2021/11/16 12:47:18;;;;;;;12.82;6.32;;;7.10;8.10;;;;;;5082205;28;20525;-67
2021/11/16 12:49:54;;;;;;;12.15;6.07;;;7.20;7.60;;;;;;5082250;28;20467;-67
2021/11/16 12:52:24;;;;;;;10.30;5.25;;;7.20;8.20;;;;;;5085663;28;20048;-67
2021/11/16 12:54:52;;;;;;;14.45;6.20;;;7.10;7.60;;;;;;5083413;28;20117;-67
2021/11/16 12:57:22;;;;;;;12.05;5.80;;;7.10;7.90;;;;;;5084334;28;20085;-67
2021/11/16 13:00:01;;;;;;;11.55;5.72;;;7.20;7.50;;;;;;5083736;28;20135;-68
2021/11/16 13:02:34;;;;;;;11.75;5.78;;;7.10;8.20;;;;;;5069228;28;20118;-67
2021/11/16 13:05:07;;;;;;;13.05;6.32;;;7.00;7.50;;;;;;5080531;28;20055;-71
2021/11/16 13:07:42;;;;;;;11.65;6.63;;;7.10;8.00;;;;;;5085280;28;20040;-66
2021/11/16 13:10:12;;;;;;;18.10;10.00;;;7.20;7.90;;;;;;5081955;28;20122;-66
2021/11/16 13:12:52;;;;;;;13.33;8.23;;;7.20;8.00;;;;;;5082318;28;20047;-66
2021/11/16 13:15:45;;;;;;;12.48;6.53;;;7.20;7.50;;;;;;5089690;28;20530;-66
2021/11/16 13:18:29;;;;;;;13.50;7.47;;;7.20;8.30;;;;;;5101500;28;20047;-66